sensor_id;sensor_type;location;lat;lon;timestamp;noise_LAeq;noise_LA_min;noise_LA_max;noise_LA01;noise_LA95
76767;Laerm;65707;52.362;6.588;2024-03-02T00:01:31;53.63;37.34;69.06;;
76767;Laerm;65707;52.362;6.588;2024-03-02T00:03:58;52.50;36.48;76.48;;
76767;Laerm;65707;52.362;6.588;2024-03-02T00:06:25;43.03;36.90;63.93;;
76767;Laerm;65707;52.362;6.588;2024-03-02T00:08:51;48.13;36.85;72.65;;
76767;Laerm;65707;52.362;6.588;2024-03-02T00:11:24;48.02;37.13;72.70;;
76767;Laerm;65707;52.362;6.588;2024-03-02T00:13:53;47.24;36.39;75.16;;
76767;Laerm;65707;52.362;6.588;2024-03-02T00:16:20;41.46;36.97;55.70;;
76767;Laerm;65707;52.362;6.588;2024-03-02T00:18:47;43.26;36.51;57.06;;
76767;Laerm;65707;52.362;6.588;2024-03-02T00:21:14;61.22;37.98;83.99;;
76767;Laerm;65707;52.362;6.588;2024-03-02T00:23:44;45.18;37.37;68.39;;
76767;Laerm;65707;52.362;6.588;2024-03-02T00:26:11;41.61;36.46;59.44;;
76767;Laerm;65707;52.362;6.588;2024-03-02T00:28:40;47.15;35.77;69.97;;
76767;Laerm;65707;52.362;6.588;2024-03-02T00:31:10;42.26;36.00;56.26;;
76767;Laerm;65707;52.362;6.588;2024-03-02T00:33:42;42.40;36.39;65.69;;
76767;Laerm;65707;52.362;6.588;2024-03-02T00:36:10;46.03;35.90;69.71;;
76767;Laerm;65707;52.362;6.588;2024-03-02T00:38:46;43.01;35.33;64.51;;
76767;Laerm;65707;52.362;6.588;2024-03-02T00:41:21;56.63;37.55;75.54;;
76767;Laerm;65707;52.362;6.588;2024-03-02T00:44:01;45.53;36.21;70.87;;
76767;Laerm;65707;52.362;6.588;2024-03-02T00:46:34;43.41;37.25;67.97;;
76767;Laerm;65707;52.362;6.588;2024-03-02T00:49:03;42.00;35.60;63.05;;
76767;Laerm;65707;52.362;6.588;2024-03-02T00:51:33;42.44;36.77;64.97;;
76767;Laerm;65707;52.362;6.588;2024-03-02T00:54:05;45.85;36.83;69.34;;
76767;Laerm;65707;52.362;6.588;2024-03-02T00:56:32;40.36;36.06;57.67;;
76767;Laerm;65707;52.362;6.588;2024-03-02T00:59:01;43.01;35.77;69.00;;
76767;Laerm;65707;52.362;6.588;2024-03-02T01:01:28;42.10;35.28;62.80;;
76767;Laerm;65707;52.362;6.588;2024-03-02T01:03:55;47.92;35.87;71.62;;
76767;Laerm;65707;52.362;6.588;2024-03-02T01:06:21;40.63;35.82;56.91;;
76767;Laerm;65707;52.362;6.588;2024-03-02T01:08:48;42.76;36.27;63.99;;
76767;Laerm;65707;52.362;6.588;2024-03-02T01:11:17;40.67;35.88;55.28;;
76767;Laerm;65707;52.362;6.588;2024-03-02T01:13:44;41.68;35.21;60.78;;
76767;Laerm;65707;52.362;6.588;2024-03-02T01:16:13;42.37;35.07;61.98;;
76767;Laerm;65707;52.362;6.588;2024-03-02T01:18:41;41.30;36.18;57.38;;
76767;Laerm;65707;52.362;6.588;2024-03-02T01:21:08;72.12;37.85;86.12;;
76767;Laerm;65707;52.362;6.588;2024-03-02T01:23:34;39.97;35.99;49.74;;
76767;Laerm;65707;52.362;6.588;2024-03-02T01:26:01;48.88;35.66;69.53;;
76767;Laerm;65707;52.362;6.588;2024-03-02T01:28:28;42.91;35.07;66.30;;
76767;Laerm;65707;52.362;6.588;2024-03-02T01:30:55;41.71;35.97;55.50;;
76767;Laerm;65707;52.362;6.588;2024-03-02T01:33:23;42.58;35.34;63.98;;
76767;Laerm;65707;52.362;6.588;2024-03-02T01:35:50;41.84;35.68;63.03;;
76767;Laerm;65707;52.362;6.588;2024-03-02T01:38:16;39.48;34.53;52.11;;
76767;Laerm;65707;52.362;6.588;2024-03-02T01:40:43;39.99;34.79;56.37;;
76767;Laerm;65707;52.362;6.588;2024-03-02T01:43:11;46.85;34.92;74.15;;
76767;Laerm;65707;52.362;6.588;2024-03-02T01:45:38;39.13;34.17;47.85;;
76767;Laerm;65707;52.362;6.588;2024-03-02T01:48:06;40.43;34.06;58.77;;
76767;Laerm;65707;52.362;6.588;2024-03-02T01:50:35;40.49;34.17;54.23;;
76767;Laerm;65707;52.362;6.588;2024-03-02T01:53:03;41.10;34.82;59.49;;
76767;Laerm;65707;52.362;6.588;2024-03-02T01:55:30;39.75;34.05;51.06;;
76767;Laerm;65707;52.362;6.588;2024-03-02T01:57:57;40.46;34.82;54.38;;
76767;Laerm;65707;52.362;6.588;2024-03-02T02:00:24;41.51;36.06;58.49;;
76767;Laerm;65707;52.362;6.588;2024-03-02T02:02:52;41.16;35.07;57.77;;
76767;Laerm;65707;52.362;6.588;2024-03-02T02:05:20;40.21;34.50;55.85;;
76767;Laerm;65707;52.362;6.588;2024-03-02T02:07:48;42.48;34.54;67.50;;
76767;Laerm;65707;52.362;6.588;2024-03-02T02:10:15;43.67;34.61;68.35;;
76767;Laerm;65707;52.362;6.588;2024-03-02T02:12:42;73.27;37.05;86.37;;
76767;Laerm;65707;52.362;6.588;2024-03-02T02:15:23;41.18;35.85;59.39;;
76767;Laerm;65707;52.362;6.588;2024-03-02T02:17:51;40.78;35.82;57.11;;
76767;Laerm;65707;52.362;6.588;2024-03-02T02:20:18;39.79;35.41;49.23;;
76767;Laerm;65707;52.362;6.588;2024-03-02T02:23:01;39.43;34.39;55.67;;
76767;Laerm;65707;52.362;6.588;2024-03-02T02:25:28;43.05;34.29;62.61;;
76767;Laerm;65707;52.362;6.588;2024-03-02T02:27:56;41.45;35.33;58.64;;
76767;Laerm;65707;52.362;6.588;2024-03-02T02:30:25;43.15;36.02;64.96;;
76767;Laerm;65707;52.362;6.588;2024-03-02T02:32:52;41.33;35.53;61.50;;
76767;Laerm;65707;52.362;6.588;2024-03-02T02:35:19;39.82;34.97;54.23;;
76767;Laerm;65707;52.362;6.588;2024-03-02T02:37:47;41.99;37.28;54.52;;
76767;Laerm;65707;52.362;6.588;2024-03-02T02:40:16;72.87;34.74;86.28;;
76767;Laerm;65707;52.362;6.588;2024-03-02T02:42:44;48.08;35.56;77.17;;
76767;Laerm;65707;52.362;6.588;2024-03-02T02:45:11;47.25;34.16;74.35;;
76767;Laerm;65707;52.362;6.588;2024-03-02T02:47:39;39.95;34.07;56.23;;
76767;Laerm;65707;52.362;6.588;2024-03-02T02:50:08;41.21;34.04;65.49;;
76767;Laerm;65707;52.362;6.588;2024-03-02T02:52:37;39.77;34.22;51.03;;
76767;Laerm;65707;52.362;6.588;2024-03-02T02:55:07;41.52;34.07;61.33;;
76767;Laerm;65707;52.362;6.588;2024-03-02T02:57:37;45.76;33.44;67.80;;
76767;Laerm;65707;52.362;6.588;2024-03-02T03:00:07;44.79;33.89;66.51;;
76767;Laerm;65707;52.362;6.588;2024-03-02T03:02:40;41.10;33.49;62.12;;
76767;Laerm;65707;52.362;6.588;2024-03-02T03:05:08;38.90;33.54;51.31;;
76767;Laerm;65707;52.362;6.588;2024-03-02T03:07:35;38.85;33.09;46.78;;
76767;Laerm;65707;52.362;6.588;2024-03-02T03:10:03;39.96;33.10;51.55;;
76767;Laerm;65707;52.362;6.588;2024-03-02T03:12:32;39.77;34.82;52.19;;
76767;Laerm;65707;52.362;6.588;2024-03-02T03:15:00;39.15;34.35;48.07;;
76767;Laerm;65707;52.362;6.588;2024-03-02T03:17:27;39.45;34.61;47.65;;
76767;Laerm;65707;52.362;6.588;2024-03-02T03:19:54;39.22;34.04;47.87;;
76767;Laerm;65707;52.362;6.588;2024-03-02T03:22:21;38.87;34.58;43.33;;
76767;Laerm;65707;52.362;6.588;2024-03-02T03:24:47;39.17;33.72;42.53;;
76767;Laerm;65707;52.362;6.588;2024-03-02T03:27:14;39.98;35.83;52.66;;
76767;Laerm;65707;52.362;6.588;2024-03-02T03:29:41;39.83;34.89;52.43;;
76767;Laerm;65707;52.362;6.588;2024-03-02T03:32:09;39.81;34.24;55.35;;
76767;Laerm;65707;52.362;6.588;2024-03-02T03:34:36;40.29;34.68;60.44;;
76767;Laerm;65707;52.362;6.588;2024-03-02T03:37:03;45.72;34.82;68.88;;
76767;Laerm;65707;52.362;6.588;2024-03-02T03:39:30;43.06;34.03;69.65;;
76767;Laerm;65707;52.362;6.588;2024-03-02T03:41:56;46.37;34.24;67.79;;
76767;Laerm;65707;52.362;6.588;2024-03-02T03:44:23;43.85;34.26;64.88;;
76767;Laerm;65707;52.362;6.588;2024-03-02T03:46:50;42.71;32.97;67.33;;
76767;Laerm;65707;52.362;6.588;2024-03-02T03:49:18;48.12;33.16;70.60;;
76767;Laerm;65707;52.362;6.588;2024-03-02T03:51:44;41.75;33.90;61.84;;
76767;Laerm;65707;52.362;6.588;2024-03-02T03:54:11;49.27;35.80;69.98;;
76767;Laerm;65707;52.362;6.588;2024-03-02T03:56:38;41.57;35.62;57.89;;
76767;Laerm;65707;52.362;6.588;2024-03-02T03:59:05;43.37;35.68;67.29;;
76767;Laerm;65707;52.362;6.588;2024-03-02T04:01:31;44.83;35.65;62.27;;
76767;Laerm;65707;52.362;6.588;2024-03-02T04:03:59;44.70;35.30;63.13;;
76767;Laerm;65707;52.362;6.588;2024-03-02T04:06:29;44.12;36.33;64.41;;
76767;Laerm;65707;52.362;6.588;2024-03-02T04:08:55;46.94;34.76;73.03;;
76767;Laerm;65707;52.362;6.588;2024-03-02T04:11:22;50.81;34.25;75.84;;
76767;Laerm;65707;52.362;6.588;2024-03-02T04:13:49;46.99;35.63;62.99;;
76767;Laerm;65707;52.362;6.588;2024-03-02T04:16:15;44.41;35.25;65.84;;
76767;Laerm;65707;52.362;6.588;2024-03-02T04:18:42;45.77;35.38;65.58;;
76767;Laerm;65707;52.362;6.588;2024-03-02T04:21:09;45.45;35.48;66.10;;
76767;Laerm;65707;52.362;6.588;2024-03-02T04:23:38;44.87;36.42;67.30;;
76767;Laerm;65707;52.362;6.588;2024-03-02T04:26:04;46.71;37.03;61.24;;
76767;Laerm;65707;52.362;6.588;2024-03-02T04:28:31;47.35;34.94;76.04;;
76767;Laerm;65707;52.362;6.588;2024-03-02T04:30:58;46.46;35.44;70.59;;
76767;Laerm;65707;52.362;6.588;2024-03-02T04:33:25;42.69;35.30;58.46;;
76767;Laerm;65707;52.362;6.588;2024-03-02T04:35:51;44.84;36.03;62.56;;
76767;Laerm;65707;52.362;6.588;2024-03-02T04:38:18;43.60;36.54;57.87;;
76767;Laerm;65707;52.362;6.588;2024-03-02T04:40:46;42.22;35.93;56.51;;
76767;Laerm;65707;52.362;6.588;2024-03-02T04:43:13;43.15;34.95;59.74;;
76767;Laerm;65707;52.362;6.588;2024-03-02T04:45:42;41.82;34.48;54.96;;
76767;Laerm;65707;52.362;6.588;2024-03-02T04:48:09;42.18;35.77;62.27;;
76767;Laerm;65707;52.362;6.588;2024-03-02T04:50:36;42.89;34.62;54.02;;
76767;Laerm;65707;52.362;6.588;2024-03-02T04:53:03;45.18;34.55;64.01;;
76767;Laerm;65707;52.362;6.588;2024-03-02T04:55:29;44.48;36.11;61.67;;
76767;Laerm;65707;52.362;6.588;2024-03-02T04:58:23;43.24;35.38;55.47;;
76767;Laerm;65707;52.362;6.588;2024-03-02T05:00:49;46.41;35.11;64.47;;
76767;Laerm;65707;52.362;6.588;2024-03-02T05:03:16;44.52;35.35;62.86;;
76767;Laerm;65707;52.362;6.588;2024-03-02T05:05:43;43.70;35.98;63.12;;
76767;Laerm;65707;52.362;6.588;2024-03-02T05:08:09;49.89;36.64;76.24;;
76767;Laerm;65707;52.362;6.588;2024-03-02T05:10:37;44.26;35.33;66.97;;
76767;Laerm;65707;52.362;6.588;2024-03-02T05:13:04;46.81;36.23;64.40;;
76767;Laerm;65707;52.362;6.588;2024-03-02T05:15:31;49.48;36.80;67.31;;
76767;Laerm;65707;52.362;6.588;2024-03-02T05:17:57;48.06;37.08;71.92;;
76767;Laerm;65707;52.362;6.588;2024-03-02T05:20:25;52.58;36.08;75.95;;
76767;Laerm;65707;52.362;6.588;2024-03-02T05:22:51;46.07;37.50;64.21;;
76767;Laerm;65707;52.362;6.588;2024-03-02T05:25:18;48.51;37.86;69.72;;
76767;Laerm;65707;52.362;6.588;2024-03-02T05:27:45;45.71;39.53;66.16;;
76767;Laerm;65707;52.362;6.588;2024-03-02T05:30:13;50.69;38.48;73.24;;
76767;Laerm;65707;52.362;6.588;2024-03-02T05:32:41;47.17;38.39;69.58;;
76767;Laerm;65707;52.362;6.588;2024-03-02T05:35:08;44.34;38.47;60.35;;
76767;Laerm;65707;52.362;6.588;2024-03-02T05:37:36;45.83;37.91;64.28;;
76767;Laerm;65707;52.362;6.588;2024-03-02T05:40:05;63.53;38.71;81.11;;
76767;Laerm;65707;52.362;6.588;2024-03-02T05:42:32;45.44;38.85;60.23;;
76767;Laerm;65707;52.362;6.588;2024-03-02T05:44:58;70.18;39.06;84.19;;
76767;Laerm;65707;52.362;6.588;2024-03-02T05:47:25;61.62;38.49;82.47;;
76767;Laerm;65707;52.362;6.588;2024-03-02T05:49:54;47.28;38.65;69.57;;
76767;Laerm;65707;52.362;6.588;2024-03-02T05:52:21;45.87;39.15;59.82;;
76767;Laerm;65707;52.362;6.588;2024-03-02T05:54:47;45.25;37.99;59.52;;
76767;Laerm;65707;52.362;6.588;2024-03-02T05:57:15;44.06;37.65;58.53;;
76767;Laerm;65707;52.362;6.588;2024-03-02T05:59:57;55.50;39.14;72.85;;
76767;Laerm;65707;52.362;6.588;2024-03-02T06:02:24;48.16;38.32;65.43;;
76767;Laerm;65707;52.362;6.588;2024-03-02T06:04:55;44.83;37.53;60.16;;
76767;Laerm;65707;52.362;6.588;2024-03-02T06:07:22;44.58;38.88;55.62;;
76767;Laerm;65707;52.362;6.588;2024-03-02T06:09:49;64.36;40.13;81.98;;
76767;Laerm;65707;52.362;6.588;2024-03-02T06:12:17;50.15;39.48;72.49;;
76767;Laerm;65707;52.362;6.588;2024-03-02T06:14:44;48.46;40.34;67.46;;
76767;Laerm;65707;52.362;6.588;2024-03-02T06:17:10;46.41;39.56;59.70;;
76767;Laerm;65707;52.362;6.588;2024-03-02T06:19:37;47.51;40.49;66.66;;
76767;Laerm;65707;52.362;6.588;2024-03-02T06:22:05;46.21;40.37;60.70;;
76767;Laerm;65707;52.362;6.588;2024-03-02T06:24:36;60.67;40.24;81.37;;
76767;Laerm;65707;52.362;6.588;2024-03-02T06:27:02;49.14;40.03;69.02;;
76767;Laerm;65707;52.362;6.588;2024-03-02T06:29:29;49.66;41.16;66.79;;
76767;Laerm;65707;52.362;6.588;2024-03-02T06:31:56;55.63;40.78;71.83;;
76767;Laerm;65707;52.362;6.588;2024-03-02T06:34:22;50.45;40.32;70.08;;
76767;Laerm;65707;52.362;6.588;2024-03-02T06:36:49;56.69;41.98;75.64;;
76767;Laerm;65707;52.362;6.588;2024-03-02T06:39:17;66.18;42.64;82.31;;
76767;Laerm;65707;52.362;6.588;2024-03-02T06:41:44;62.74;42.00;81.19;;
76767;Laerm;65707;52.362;6.588;2024-03-02T06:44:12;51.90;41.74;71.22;;
76767;Laerm;65707;52.362;6.588;2024-03-02T06:46:39;47.64;42.01;66.18;;
76767;Laerm;65707;52.362;6.588;2024-03-02T06:49:05;47.84;41.38;63.62;;
76767;Laerm;65707;52.362;6.588;2024-03-02T06:51:34;61.07;41.87;81.23;;
76767;Laerm;65707;52.362;6.588;2024-03-02T06:54:00;56.89;41.28;77.11;;
76767;Laerm;65707;52.362;6.588;2024-03-02T06:56:28;47.37;41.78;56.92;;
76767;Laerm;65707;52.362;6.588;2024-03-02T06:58:56;56.11;41.61;75.60;;
76767;Laerm;65707;52.362;6.588;2024-03-02T07:01:22;50.38;42.27;65.00;;
76767;Laerm;65707;52.362;6.588;2024-03-02T07:03:51;47.69;41.42;58.26;;
76767;Laerm;65707;52.362;6.588;2024-03-02T07:06:18;48.40;40.24;78.62;;
76767;Laerm;65707;52.362;6.588;2024-03-02T07:08:45;57.56;41.38;76.57;;
76767;Laerm;65707;52.362;6.588;2024-03-02T07:11:11;63.14;42.29;81.91;;
76767;Laerm;65707;52.362;6.588;2024-03-02T07:13:39;47.97;41.49;62.82;;
76767;Laerm;65707;52.362;6.588;2024-03-02T07:16:06;48.48;42.10;61.70;;
76767;Laerm;65707;52.362;6.588;2024-03-02T07:18:54;47.69;41.17;59.12;;
76767;Laerm;65707;52.362;6.588;2024-03-02T07:21:22;60.18;43.28;80.01;;
76767;Laerm;65707;52.362;6.588;2024-03-02T07:23:49;57.98;42.47;77.00;;
76767;Laerm;65707;52.362;6.588;2024-03-02T07:26:16;47.03;42.03;55.94;;
76767;Laerm;65707;52.362;6.588;2024-03-02T07:28:45;52.12;42.78;70.96;;
76767;Laerm;65707;52.362;6.588;2024-03-02T07:31:13;56.35;42.70;71.92;;
76767;Laerm;65707;52.362;6.588;2024-03-02T07:33:40;51.01;43.85;72.18;;
76767;Laerm;65707;52.362;6.588;2024-03-02T07:36:07;66.71;42.90;82.11;;
76767;Laerm;65707;52.362;6.588;2024-03-02T07:38:34;48.20;42.68;59.55;;
76767;Laerm;65707;52.362;6.588;2024-03-02T07:41:01;56.65;42.70;74.67;;
76767;Laerm;65707;52.362;6.588;2024-03-02T07:43:28;63.53;43.31;82.51;;
76767;Laerm;65707;52.362;6.588;2024-03-02T07:45:56;50.98;44.03;76.15;;
76767;Laerm;65707;52.362;6.588;2024-03-02T07:48:23;49.57;44.12;71.50;;
76767;Laerm;65707;52.362;6.588;2024-03-02T07:50:50;61.11;44.64;80.27;;
76767;Laerm;65707;52.362;6.588;2024-03-02T07:53:17;56.90;42.68;74.16;;
76767;Laerm;65707;52.362;6.588;2024-03-02T07:55:44;50.05;43.69;59.24;;
76767;Laerm;65707;52.362;6.588;2024-03-02T07:58:10;48.09;42.14;56.63;;
76767;Laerm;65707;52.362;6.588;2024-03-02T08:00:38;56.76;43.34;76.65;;
76767;Laerm;65707;52.362;6.588;2024-03-02T08:03:07;48.52;41.53;64.46;;
76767;Laerm;65707;52.362;6.588;2024-03-02T08:05:36;49.11;41.38;63.51;;
76767;Laerm;65707;52.362;6.588;2024-03-02T08:08:04;58.10;43.28;76.62;;
76767;Laerm;65707;52.362;6.588;2024-03-02T08:10:31;64.88;42.24;81.87;;
76767;Laerm;65707;52.362;6.588;2024-03-02T08:12:59;59.27;42.78;85.62;;
76767;Laerm;65707;52.362;6.588;2024-03-02T08:15:29;47.68;41.89;60.87;;
76767;Laerm;65707;52.362;6.588;2024-03-02T08:17:55;48.66;41.68;59.36;;
76767;Laerm;65707;52.362;6.588;2024-03-02T08:20:24;58.62;42.35;79.83;;
76767;Laerm;65707;52.362;6.588;2024-03-02T08:22:51;49.71;42.25;64.91;;
76767;Laerm;65707;52.362;6.588;2024-03-02T08:25:20;59.18;42.32;77.40;;
76767;Laerm;65707;52.362;6.588;2024-03-02T08:27:47;48.95;43.00;63.14;;
76767;Laerm;65707;52.362;6.588;2024-03-02T08:30:14;56.25;41.53;72.08;;
76767;Laerm;65707;52.362;6.588;2024-03-02T08:32:41;46.75;41.47;57.43;;
76767;Laerm;65707;52.362;6.588;2024-03-02T08:35:08;49.27;41.97;63.02;;
76767;Laerm;65707;52.362;6.588;2024-03-02T08:37:39;56.35;43.33;76.11;;
76767;Laerm;65707;52.362;6.588;2024-03-02T08:40:08;67.30;42.42;84.29;;
76767;Laerm;65707;52.362;6.588;2024-03-02T08:42:35;64.67;42.07;82.30;;
76767;Laerm;65707;52.362;6.588;2024-03-02T08:45:02;60.50;42.46;83.89;;
76767;Laerm;65707;52.362;6.588;2024-03-02T08:47:29;71.53;42.92;84.78;;
76767;Laerm;65707;52.362;6.588;2024-03-02T08:49:55;62.17;41.21;83.57;;
76767;Laerm;65707;52.362;6.588;2024-03-02T08:52:22;56.61;45.01;75.77;;
76767;Laerm;65707;52.362;6.588;2024-03-02T08:54:50;59.12;42.27;79.13;;
76767;Laerm;65707;52.362;6.588;2024-03-02T08:57:17;53.48;43.71;75.96;;
76767;Laerm;65707;52.362;6.588;2024-03-02T08:59:49;58.20;43.53;77.09;;
76767;Laerm;65707;52.362;6.588;2024-03-02T09:02:16;54.20;42.66;74.40;;
76767;Laerm;65707;52.362;6.588;2024-03-02T09:04:43;55.04;41.80;77.47;;
76767;Laerm;65707;52.362;6.588;2024-03-02T09:07:10;54.83;42.14;75.51;;
76767;Laerm;65707;52.362;6.588;2024-03-02T09:09:36;57.82;42.45;75.08;;
76767;Laerm;65707;52.362;6.588;2024-03-02T09:12:05;63.73;43.50;82.14;;
76767;Laerm;65707;52.362;6.588;2024-03-02T09:14:33;51.44;42.01;66.49;;
76767;Laerm;65707;52.362;6.588;2024-03-02T09:17:00;50.61;42.41;64.80;;
76767;Laerm;65707;52.362;6.588;2024-03-02T09:19:26;54.24;42.84;78.56;;
76767;Laerm;65707;52.362;6.588;2024-03-02T09:21:53;65.21;42.87;83.58;;
76767;Laerm;65707;52.362;6.588;2024-03-02T09:24:21;58.48;43.46;78.25;;
76767;Laerm;65707;52.362;6.588;2024-03-02T09:26:47;53.84;46.29;74.13;;
76767;Laerm;65707;52.362;6.588;2024-03-02T09:29:15;52.33;43.66;72.03;;
76767;Laerm;65707;52.362;6.588;2024-03-02T09:31:43;57.42;43.25;75.71;;
76767;Laerm;65707;52.362;6.588;2024-03-02T09:34:09;49.75;43.77;64.14;;
76767;Laerm;65707;52.362;6.588;2024-03-02T09:36:36;64.98;44.38;81.75;;
76767;Laerm;65707;52.362;6.588;2024-03-02T09:39:03;56.50;43.69;79.48;;
76767;Laerm;65707;52.362;6.588;2024-03-02T09:41:30;67.05;44.96;84.71;;
76767;Laerm;65707;52.362;6.588;2024-03-02T09:43:57;50.92;42.65;66.49;;
76767;Laerm;65707;52.362;6.588;2024-03-02T09:46:25;48.70;42.70;57.64;;
76767;Laerm;65707;52.362;6.588;2024-03-02T09:48:53;49.50;44.68;61.60;;
76767;Laerm;65707;52.362;6.588;2024-03-02T09:51:20;55.68;44.75;78.20;;
76767;Laerm;65707;52.362;6.588;2024-03-02T09:53:47;63.45;46.34;81.96;;
76767;Laerm;65707;52.362;6.588;2024-03-02T09:56:14;60.20;44.82;81.79;;
76767;Laerm;65707;52.362;6.588;2024-03-02T09:58:42;56.45;43.30;75.51;;
76767;Laerm;65707;52.362;6.588;2024-03-02T10:01:09;52.55;44.96;70.33;;
76767;Laerm;65707;52.362;6.588;2024-03-02T10:03:38;50.73;43.90;64.91;;
76767;Laerm;65707;52.362;6.588;2024-03-02T10:06:22;50.52;43.01;71.47;;
76767;Laerm;65707;52.362;6.588;2024-03-02T10:08:49;56.06;43.19;73.38;;
76767;Laerm;65707;52.362;6.588;2024-03-02T10:11:35;63.62;44.29;80.75;;
76767;Laerm;65707;52.362;6.588;2024-03-02T10:14:07;52.27;43.84;71.21;;
76767;Laerm;65707;52.362;6.588;2024-03-02T10:16:35;51.95;44.28;71.03;;
76767;Laerm;65707;52.362;6.588;2024-03-02T10:19:24;54.52;44.59;76.02;;
76767;Laerm;65707;52.362;6.588;2024-03-02T10:21:54;53.68;45.76;70.74;;
76767;Laerm;65707;52.362;6.588;2024-03-02T10:24:22;57.29;45.13;75.17;;
76767;Laerm;65707;52.362;6.588;2024-03-02T10:26:52;51.57;43.39;72.26;;
76767;Laerm;65707;52.362;6.588;2024-03-02T10:29:19;51.90;43.43;74.80;;
76767;Laerm;65707;52.362;6.588;2024-03-02T10:31:46;59.42;41.62;79.93;;
76767;Laerm;65707;52.362;6.588;2024-03-02T10:34:14;60.22;44.94;78.02;;
76767;Laerm;65707;52.362;6.588;2024-03-02T10:36:44;57.50;43.55;75.95;;
76767;Laerm;65707;52.362;6.588;2024-03-02T10:39:14;66.50;43.94;84.37;;
76767;Laerm;65707;52.362;6.588;2024-03-02T10:41:41;64.21;44.54;83.92;;
76767;Laerm;65707;52.362;6.588;2024-03-02T10:44:09;63.75;45.19;82.07;;
76767;Laerm;65707;52.362;6.588;2024-03-02T10:46:37;56.35;44.29;81.49;;
76767;Laerm;65707;52.362;6.588;2024-03-02T10:49:06;57.02;45.49;79.23;;
76767;Laerm;65707;52.362;6.588;2024-03-02T10:51:33;63.67;43.33;83.51;;
76767;Laerm;65707;52.362;6.588;2024-03-02T10:54:04;57.08;42.89;74.27;;
76767;Laerm;65707;52.362;6.588;2024-03-02T10:56:33;54.41;43.43;74.03;;
76767;Laerm;65707;52.362;6.588;2024-03-02T10:59:06;57.02;44.81;75.19;;
76767;Laerm;65707;52.362;6.588;2024-03-02T11:01:39;56.42;44.85;81.10;;
76767;Laerm;65707;52.362;6.588;2024-03-02T11:04:13;57.78;45.94;77.76;;
76767;Laerm;65707;52.362;6.588;2024-03-02T11:06:48;57.81;44.32;82.57;;
76767;Laerm;65707;52.362;6.588;2024-03-02T11:09:21;65.35;45.83;84.11;;
76767;Laerm;65707;52.362;6.588;2024-03-02T11:12:03;50.80;44.50;63.94;;
76767;Laerm;65707;52.362;6.588;2024-03-02T11:14:32;51.24;43.81;67.36;;
76767;Laerm;65707;52.362;6.588;2024-03-02T11:17:02;54.35;42.24;81.53;;
76767;Laerm;65707;52.362;6.588;2024-03-02T11:19:31;51.64;43.07;67.81;;
76767;Laerm;65707;52.362;6.588;2024-03-02T11:22:00;63.16;42.55;84.22;;
76767;Laerm;65707;52.362;6.588;2024-03-02T11:24:31;57.26;42.81;80.55;;
76767;Laerm;65707;52.362;6.588;2024-03-02T11:27:00;50.76;42.89;67.90;;
76767;Laerm;65707;52.362;6.588;2024-03-02T11:29:46;50.96;42.93;66.84;;
76767;Laerm;65707;52.362;6.588;2024-03-02T11:32:17;56.70;44.35;76.30;;
76767;Laerm;65707;52.362;6.588;2024-03-02T11:34:48;55.46;45.31;81.57;;
76767;Laerm;65707;52.362;6.588;2024-03-02T11:37:17;56.01;42.61;73.05;;
76767;Laerm;65707;52.362;6.588;2024-03-02T11:39:50;53.92;42.27;79.00;;
76767;Laerm;65707;52.362;6.588;2024-03-02T11:42:17;62.46;42.69;79.15;;
76767;Laerm;65707;52.362;6.588;2024-03-02T11:44:47;55.23;42.60;84.22;;
76767;Laerm;65707;52.362;6.588;2024-03-02T11:47:16;52.75;42.22;72.93;;
76767;Laerm;65707;52.362;6.588;2024-03-02T11:49:45;57.08;42.55;82.82;;
76767;Laerm;65707;52.362;6.588;2024-03-02T11:52:14;65.33;44.75;84.94;;
76767;Laerm;65707;52.362;6.588;2024-03-02T11:54:44;57.79;42.94;74.54;;
76767;Laerm;65707;52.362;6.588;2024-03-02T11:57:20;52.35;43.81;69.54;;
76767;Laerm;65707;52.362;6.588;2024-03-02T11:59:48;56.61;43.64;75.62;;
76767;Laerm;65707;52.362;6.588;2024-03-02T12:02:17;49.56;42.50;65.74;;
76767;Laerm;65707;52.362;6.588;2024-03-02T12:04:45;50.72;44.33;72.51;;
76767;Laerm;65707;52.362;6.588;2024-03-02T12:07:18;54.05;42.92;84.32;;
76767;Laerm;65707;52.362;6.588;2024-03-02T12:09:45;66.73;44.16;81.31;;
76767;Laerm;65707;52.362;6.588;2024-03-02T12:12:11;50.57;43.49;67.98;;
76767;Laerm;65707;52.362;6.588;2024-03-02T12:14:51;62.29;44.92;81.29;;
76767;Laerm;65707;52.362;6.588;2024-03-02T12:17:21;53.51;41.85;77.49;;
76767;Laerm;65707;52.362;6.588;2024-03-02T12:19:48;50.84;42.24;65.47;;
76767;Laerm;65707;52.362;6.588;2024-03-02T12:22:15;65.77;44.70;83.77;;
76767;Laerm;65707;52.362;6.588;2024-03-02T12:24:43;58.50;43.03;79.88;;
76767;Laerm;65707;52.362;6.588;2024-03-02T12:27:12;60.42;44.01;85.43;;
76767;Laerm;65707;52.362;6.588;2024-03-02T12:29:39;54.53;43.32;77.16;;
76767;Laerm;65707;52.362;6.588;2024-03-02T12:32:08;55.70;43.98;74.58;;
76767;Laerm;65707;52.362;6.588;2024-03-02T12:34:35;51.33;42.62;76.45;;
76767;Laerm;65707;52.362;6.588;2024-03-02T12:37:01;50.52;42.41;68.05;;
76767;Laerm;65707;52.362;6.588;2024-03-02T12:39:29;66.55;44.03;83.83;;
76767;Laerm;65707;52.362;6.588;2024-03-02T12:41:57;63.74;43.86;82.75;;
76767;Laerm;65707;52.362;6.588;2024-03-02T12:44:23;63.46;43.69;83.43;;
76767;Laerm;65707;52.362;6.588;2024-03-02T12:46:51;52.64;41.27;73.08;;
76767;Laerm;65707;52.362;6.588;2024-03-02T12:49:22;48.48;43.10;57.23;;
76767;Laerm;65707;52.362;6.588;2024-03-02T12:51:49;66.05;43.60;83.52;;
76767;Laerm;65707;52.362;6.588;2024-03-02T12:54:22;55.90;42.63;74.30;;
76767;Laerm;65707;52.362;6.588;2024-03-02T12:56:50;51.64;43.82;72.26;;
76767;Laerm;65707;52.362;6.588;2024-03-02T12:59:20;57.29;43.25;75.25;;
76767;Laerm;65707;52.362;6.588;2024-03-02T13:01:51;52.56;41.81;73.36;;
76767;Laerm;65707;52.362;6.588;2024-03-02T13:04:24;51.09;42.58;66.70;;
76767;Laerm;65707;52.362;6.588;2024-03-02T13:06:52;50.85;43.98;68.08;;
76767;Laerm;65707;52.362;6.588;2024-03-02T13:09:19;70.82;43.48;84.70;;
76767;Laerm;65707;52.362;6.588;2024-03-02T13:11:46;63.33;44.88;80.31;;
76767;Laerm;65707;52.362;6.588;2024-03-02T13:14:13;53.21;41.96;78.39;;
76767;Laerm;65707;52.362;6.588;2024-03-02T13:16:41;49.72;43.60;64.56;;
76767;Laerm;65707;52.362;6.588;2024-03-02T13:19:08;49.00;42.58;67.84;;
76767;Laerm;65707;52.362;6.588;2024-03-02T13:21:36;62.52;43.35;82.98;;
76767;Laerm;65707;52.362;6.588;2024-03-02T13:24:04;56.39;41.88;75.51;;
76767;Laerm;65707;52.362;6.588;2024-03-02T13:26:31;50.62;42.54;69.22;;
76767;Laerm;65707;52.362;6.588;2024-03-02T13:28:57;52.06;43.28;64.18;;
76767;Laerm;65707;52.362;6.588;2024-03-02T13:31:24;56.28;43.51;70.63;;
76767;Laerm;65707;52.362;6.588;2024-03-02T13:33:51;50.17;42.87;66.17;;
76767;Laerm;65707;52.362;6.588;2024-03-02T13:36:17;68.36;41.52;85.12;;
76767;Laerm;65707;52.362;6.588;2024-03-02T13:38:46;56.71;43.45;74.71;;
76767;Laerm;65707;52.362;6.588;2024-03-02T13:41:12;65.79;44.83;82.58;;
76767;Laerm;65707;52.362;6.588;2024-03-02T13:43:39;50.44;43.04;70.08;;
76767;Laerm;65707;52.362;6.588;2024-03-02T13:46:06;49.20;42.53;62.53;;
76767;Laerm;65707;52.362;6.588;2024-03-02T13:48:33;49.07;42.66;66.50;;
76767;Laerm;65707;52.362;6.588;2024-03-02T13:50:59;63.75;43.03;83.82;;